Time;durP1;ratioP1;P1;durP2;ratioP2;P2;SDS_P1;SDS_P2;PMS_P1;PMS_P2;Temp;Humidity;BMP_temperature;BMP_pressure;BME280_temperature;BME280_humidity;BME280_pressure;Samples;Min_cycle;Max_cycle;Signal;HPM_P1;HPM_P2
2023/08/26 00:00:03;;;;;;;16.75;10.68;;;24.10;99.90;;;;;;5035285;28;20080;-72
2023/08/26 00:02:36;;;;;;;21.45;11.80;;;24.10;99.90;;;;;;5035058;28;20033;-73
2023/08/26 00:05:02;;;;;;;24.23;13.18;;;24.00;99.90;;;;;;5035217;28;20025;-73
2023/08/26 00:07:28;;;;;;;23.30;11.80;;;24.00;99.90;;;;;;5035153;28;20032;-72
2023/08/26 00:09:54;;;;;;;27.70;12.25;;;23.90;99.90;;;;;;5035061;28;20056;-71
2023/08/26 00:12:19;;;;;;;20.17;12.13;;;24.00;99.90;;;;;;5035008;28;20080;-72
2023/08/26 00:14:46;;;;;;;17.73;12.25;;;23.90;99.90;;;;;;5032882;28;20025;-72
2023/08/26 00:17:12;;;;;;;20.83;11.63;;;23.90;99.90;;;;;;5034901;28;20389;-72
2023/08/26 00:19:38;;;;;;;21.80;12.60;;;24.00;99.90;;;;;;5034383;28;20032;-72
2023/08/26 00:22:05;;;;;;;20.30;12.10;;;24.00;99.90;;;;;;5034764;28;20093;-72
2023/08/26 00:24:31;;;;;;;18.08;10.77;;;23.80;99.90;;;;;;5034265;28;20021;-71
2023/08/26 00:26:58;;;;;;;18.27;11.30;;;24.00;99.90;;;;;;5034997;28;20417;-72
2023/08/26 00:29:24;;;;;;;20.70;12.25;;;23.90;99.90;;;;;;5015813;28;20041;-73
2023/08/26 00:31:50;;;;;;;18.92;12.02;;;23.80;99.90;;;;;;5033958;28;20515;-71
2023/08/26 00:34:15;;;;;;;21.25;12.48;;;23.80;99.90;;;;;;5016198;28;20029;-72
2023/08/26 00:36:41;;;;;;;22.25;12.68;;;23.90;99.90;;;;;;5016857;28;20392;-73
2023/08/26 00:39:07;;;;;;;19.65;12.60;;;23.90;99.90;;;;;;5013664;28;20025;-73
2023/08/26 00:41:33;;;;;;;18.80;12.95;;;23.90;99.90;;;;;;5031789;28;20076;-71
2023/08/26 00:43:59;;;;;;;19.98;12.07;;;23.80;99.90;;;;;;5014768;28;20597;-72
2023/08/26 00:46:25;;;;;;;21.02;13.25;;;23.70;99.90;;;;;;5016111;28;20029;-73
2023/08/26 00:48:51;;;;;;;19.95;12.73;;;23.70;99.90;;;;;;5033159;28;20385;-73
2023/08/26 00:51:19;;;;;;;25.67;12.57;;;23.70;99.90;;;;;;5015765;28;20025;-72
2023/08/26 00:53:46;;;;;;;19.17;11.32;;;23.60;99.90;;;;;;5015777;28;20492;-73
2023/08/26 00:56:12;;;;;;;20.10;12.68;;;23.50;99.90;;;;;;5015607;28;20037;-72
2023/08/26 00:58:38;;;;;;;24.60;13.85;;;23.50;99.90;;;;;;5033754;28;20369;-72
2023/08/26 01:01:04;;;;;;;17.90;12.52;;;23.50;99.90;;;;;;5015057;28;20022;-72
2023/08/26 01:03:31;;;;;;;18.17;11.57;;;23.50;99.90;;;;;;5033956;28;20025;-73
2023/08/26 01:05:57;;;;;;;18.23;12.73;;;23.40;99.90;;;;;;5033456;28;20088;-72
2023/08/26 01:08:23;;;;;;;19.52;13.00;;;23.30;99.90;;;;;;5033618;28;20029;-73
2023/08/26 01:10:52;;;;;;;18.23;12.98;;;23.30;99.90;;;;;;5014671;28;20029;-73
2023/08/26 01:13:22;;;;;;;21.08;12.35;;;23.40;99.90;;;;;;5015454;28;20029;-73
2023/08/26 01:15:50;;;;;;;20.13;12.80;;;23.40;99.90;;;;;;5031441;28;20544;-72
2023/08/26 01:18:16;;;;;;;25.15;13.63;;;23.50;99.90;;;;;;5032421;28;20753;-73
2023/08/26 01:20:43;;;;;;;22.65;13.60;;;23.50;99.90;;;;;;5014180;28;20044;-73
2023/08/26 01:23:18;;;;;;;21.48;14.13;;;23.40;99.90;;;;;;5032107;28;20026;-73
2023/08/26 01:25:44;;;;;;;20.70;12.95;;;23.40;99.90;;;;;;5011414;28;20033;-73
2023/08/26 01:28:10;;;;;;;21.63;12.52;;;;;;;;;;5031651;28;20061;-73
2023/08/26 01:30:36;;;;;;;17.92;12.43;;;23.30;99.90;;;;;;5031874;28;20100;-73
2023/08/26 01:33:21;;;;;;;23.27;12.90;;;23.30;99.90;;;;;;5032222;28;20025;-72
2023/08/26 01:35:49;;;;;;;19.42;13.40;;;23.20;99.90;;;;;;5031930;28;20056;-72
2023/08/26 01:38:16;;;;;;;22.73;14.35;;;23.30;99.90;;;;;;5031914;28;20014;-72
2023/08/26 01:40:51;;;;;;;20.85;13.10;;;23.30;99.90;;;;;;5031830;28;20388;-72
2023/08/26 01:43:18;;;;;;;20.48;13.57;;;23.30;99.90;;;;;;5010349;28;20053;-72
2023/08/26 01:45:45;;;;;;;22.40;13.68;;;;;;;;;;5031556;28;20033;-72
2023/08/26 01:48:11;;;;;;;21.65;13.68;;;23.10;99.90;;;;;;5013975;28;20443;-72
2023/08/26 01:50:36;;;;;;;25.90;14.48;;;23.10;99.90;;;;;;5013332;28;20029;-73
2023/08/26 01:53:02;;;;;;;17.42;13.60;;;23.00;99.90;;;;;;4998334;28;20038;-71
2023/08/26 01:55:28;;;;;;;20.75;13.73;;;23.00;99.90;;;;;;5012780;28;20109;-73
2023/08/26 01:57:54;;;;;;;19.15;14.40;;;23.00;99.90;;;;;;5012400;28;20096;-72
2023/08/26 02:00:20;;;;;;;21.75;15.32;;;;;;;;;;5014010;28;20104;-72
2023/08/26 02:02:46;;;;;;;19.50;14.63;;;22.60;99.90;;;;;;5031642;28;20067;-72
2023/08/26 02:05:12;;;;;;;24.73;14.85;;;22.70;99.90;;;;;;5030661;28;20021;-72
2023/08/26 02:07:38;;;;;;;22.00;14.00;;;22.70;99.90;;;;;;5013480;28;20099;-73
2023/08/26 02:10:04;;;;;;;20.25;14.23;;;22.70;99.90;;;;;;5012653;28;20063;-73
2023/08/26 02:12:32;;;;;;;18.88;13.65;;;22.60;99.90;;;;;;5031343;28;20057;-72
2023/08/26 02:14:57;;;;;;;17.23;13.43;;;22.50;99.90;;;;;;5013685;28;20056;-72
2023/08/26 02:17:24;;;;;;;21.45;14.55;;;;;;;;;;5013835;28;20061;-72
2023/08/26 02:19:49;;;;;;;21.75;14.45;;;22.40;99.90;;;;;;5011302;28;20128;-71
2023/08/26 02:22:17;;;;;;;19.90;14.60;;;22.40;99.90;;;;;;5013352;28;20032;-73
2023/08/26 02:24:43;;;;;;;21.73;14.05;;;22.40;99.90;;;;;;5013140;28;20021;-72
2023/08/26 02:27:09;;;;;;;18.92;12.90;;;22.30;99.90;;;;;;5027433;28;20029;-72
2023/08/26 02:29:34;;;;;;;18.05;13.55;;;22.30;99.90;;;;;;5030900;28;20033;-72
2023/08/26 02:32:00;;;;;;;22.50;15.63;;;22.30;99.90;;;;;;5012807;28;20074;-71
2023/08/26 02:34:26;;;;;;;18.15;13.10;;;22.30;99.90;;;;;;5012552;28;20037;-73
2023/08/26 02:36:53;;;;;;;18.50;12.88;;;22.40;99.90;;;;;;5030747;28;20036;-72
2023/08/26 02:39:19;;;;;;;18.77;12.95;;;22.30;99.90;;;;;;5012877;28;20470;-73
2023/08/26 02:41:45;;;;;;;21.67;14.27;;;22.30;99.90;;;;;;5030577;28;20026;-71
2023/08/26 02:44:11;;;;;;;20.90;13.60;;;22.30;99.90;;;;;;5029881;28;20045;-72
2023/08/26 02:46:37;;;;;;;18.20;13.32;;;22.30;99.90;;;;;;5011846;28;20034;-72
2023/08/26 02:49:03;;;;;;;17.25;12.43;;;22.30;99.90;;;;;;5030873;28;20033;-73
2023/08/26 02:51:29;;;;;;;20.13;14.07;;;22.30;99.90;;;;;;5030591;28;20540;-73
2023/08/26 02:53:55;;;;;;;20.20;14.23;;;22.30;99.90;;;;;;5013701;28;20135;-73
2023/08/26 02:56:20;;;;;;;19.23;13.57;;;22.30;99.90;;;;;;5012342;28;20094;-74
2023/08/26 02:58:46;;;;;;;19.50;14.15;;;22.40;99.90;;;;;;5012593;28;20041;-72
2023/08/26 03:01:16;;;;;;;19.52;13.85;;;22.30;99.90;;;;;;5012379;28;20033;-73
2023/08/26 03:03:42;;;;;;;20.58;13.98;;;22.20;99.90;;;;;;5011890;28;20029;-72
2023/08/26 03:06:09;;;;;;;22.25;14.30;;;22.90;99.90;;;;;;5012778;28;20022;-72
2023/08/26 03:08:35;;;;;;;21.13;14.70;;;22.30;99.90;;;;;;5030559;28;20036;-72
2023/08/26 03:11:03;;;;;;;21.30;14.18;;;;;;;;;;5015332;28;20060;-72
2023/08/26 03:13:30;;;;;;;20.77;14.88;;;;;;;;;;5029868;28;20055;-74
2023/08/26 03:15:56;;;;;;;22.15;15.13;;;22.00;99.90;;;;;;5012296;28;20511;-71
2023/08/26 03:18:22;;;;;;;20.02;14.05;;;22.00;99.90;;;;;;5029881;28;20045;-72
2023/08/26 03:20:49;;;;;;;20.65;14.23;;;22.00;99.90;;;;;;5013708;28;20457;-71
2023/08/26 03:23:15;;;;;;;23.85;15.25;;;21.90;99.90;;;;;;5012395;28;20035;-72
2023/08/26 03:25:44;;;;;;;20.75;14.65;;;21.90;99.90;;;;;;5012212;28;20017;-73
2023/08/26 03:28:10;;;;;;;21.05;15.68;;;21.90;99.90;;;;;;5012632;28;20040;-73
2023/08/26 03:30:37;;;;;;;22.58;15.75;;;22.20;99.90;;;;;;5012153;28;20033;-73
2023/08/26 03:33:03;;;;;;;23.75;14.80;;;21.80;99.90;;;;;;5012959;28;20092;-72
2023/08/26 03:35:29;;;;;;;24.15;15.68;;;21.70;99.90;;;;;;5031761;28;20056;-73
2023/08/26 03:37:55;;;;;;;26.15;17.23;;;21.80;99.90;;;;;;5013722;28;20496;-73
2023/08/26 03:40:24;;;;;;;30.60;16.67;;;21.50;99.90;;;;;;5011525;28;20439;-73
2023/08/26 03:42:50;;;;;;;24.15;15.77;;;21.60;99.90;;;;;;5031329;28;20037;-72
2023/08/26 03:45:17;;;;;;;19.98;15.40;;;21.60;99.90;;;;;;5012690;28;20477;-73
2023/08/26 03:47:43;;;;;;;19.90;14.77;;;21.50;99.90;;;;;;5024105;28;20032;-72
2023/08/26 03:50:09;;;;;;;19.50;14.70;;;21.50;99.90;;;;;;5038477;28;20473;-73
2023/08/26 03:52:35;;;;;;;21.83;14.80;;;21.50;99.90;;;;;;5013542;28;20122;-72
2023/08/26 03:55:02;;;;;;;19.42;14.88;;;21.50;99.90;;;;;;5031342;28;20025;-73
2023/08/26 03:57:28;;;;;;;20.85;14.73;;;21.50;99.90;;;;;;5024033;28;20023;-72
2023/08/26 03:59:53;;;;;;;20.60;15.40;;;21.50;99.90;;;;;;5031454;28;20039;-74
2023/08/26 04:02:19;;;;;;;23.98;15.90;;;21.50;99.90;;;;;;5011791;28;20083;-72
2023/08/26 04:04:45;;;;;;;20.65;15.35;;;21.50;99.90;;;;;;5013673;28;20032;-72
2023/08/26 04:07:11;;;;;;;21.77;15.75;;;21.50;99.90;;;;;;5018713;28;20435;-73
2023/08/26 04:09:37;;;;;;;23.25;14.98;;;21.70;99.90;;;;;;5013056;28;20057;-73
2023/08/26 04:12:03;;;;;;;22.75;15.32;;;21.80;99.90;;;;;;5011913;28;20477;-73
2023/08/26 04:14:29;;;;;;;24.88;15.43;;;21.90;99.90;;;;;;5012758;28;20039;-72
2023/08/26 04:16:55;;;;;;;19.48;14.82;;;22.00;99.90;;;;;;5013408;28;20128;-73
2023/08/26 04:19:21;;;;;;;20.35;14.05;;;22.20;99.90;;;;;;5031070;28;20025;-72
2023/08/26 04:21:47;;;;;;;20.58;13.65;;;22.50;99.90;;;;;;5013454;28;20386;-73
2023/08/26 04:24:12;;;;;;;19.02;13.30;;;22.60;99.90;;;;;;5029353;28;20099;-73
2023/08/26 04:26:39;;;;;;;21.55;14.35;;;23.00;99.90;;;;;;5013352;28;20113;-73
2023/08/26 04:29:05;;;;;;;25.55;14.52;;;23.40;99.90;;;;;;5014970;28;20136;-73
2023/08/26 04:31:31;;;;;;;25.33;13.82;;;23.80;99.90;;;;;;5017121;28;20075;-72
2023/08/26 04:33:57;;;;;;;21.60;13.65;;;24.00;99.90;;;;;;5028523;28;20057;-73
2023/08/26 04:36:23;;;;;;;25.10;12.70;;;24.20;99.90;;;;;;5016387;28;20469;-72
2023/08/26 04:38:49;;;;;;;20.33;13.50;;;24.40;99.90;;;;;;5034821;28;20486;-73
2023/08/26 04:41:15;;;;;;;25.35;13.13;;;24.70;99.90;;;;;;5016402;28;20047;-73
2023/08/26 04:43:40;;;;;;;22.88;13.05;;;24.50;99.90;;;;;;5034030;28;20052;-73
2023/08/26 04:46:06;;;;;;;20.27;13.35;;;24.60;99.90;;;;;;5033547;28;20044;-73
2023/08/26 04:48:33;;;;;;;25.98;13.30;;;25.00;99.90;;;;;;5033111;28;20038;-73
2023/08/26 04:50:59;;;;;;;21.45;13.10;;;24.80;99.90;;;;;;5034338;28;20025;-74
2023/08/26 04:53:25;;;;;;;19.40;13.48;;;24.50;99.90;;;;;;5016525;28;20113;-73
2023/08/26 04:55:51;;;;;;;23.50;14.38;;;24.50;99.90;;;;;;5034176;28;20029;-72
2023/08/26 04:58:18;;;;;;;22.30;14.82;;;24.80;99.90;;;;;;5014320;28;20032;-73
2023/08/26 05:00:45;;;;;;;20.23;13.63;;;24.90;99.90;;;;;;5033615;28;20021;-73
2023/08/26 05:03:11;;;;;;;17.75;13.80;;;25.50;99.90;;;;;;5034132;28;20037;-73
2023/08/26 05:05:41;;;;;;;20.58;14.27;;;26.30;99.90;;;;;;5015745;28;20036;-73
2023/08/26 05:08:10;;;;;;;21.77;13.70;;;26.90;99.90;;;;;;5032397;28;20026;-73
2023/08/26 05:10:39;;;;;;;20.63;13.30;;;27.50;99.90;;;;;;4996945;28;20478;-74
2023/08/26 05:13:05;;;;;;;23.63;15.27;;;27.80;99.90;;;;;;4996959;28;20081;-74
2023/08/26 05:15:32;;;;;;;19.52;14.52;;;27.40;99.90;;;;;;5016213;28;20033;-73
2023/08/26 05:17:58;;;;;;;20.33;14.02;;;27.00;99.90;;;;;;5015527;28;20368;-72
2023/08/26 05:20:24;;;;;;;23.13;15.00;;;26.80;99.90;;;;;;5009333;28;20063;-72
2023/08/26 05:22:50;;;;;;;31.20;14.68;;;26.70;99.90;;;;;;5019196;28;20476;-73
2023/08/26 05:25:17;;;;;;;24.50;15.20;;;26.60;99.90;;;;;;5016119;28;20076;-74
2023/08/26 05:27:44;;;;;;;23.13;16.30;;;26.70;99.90;;;;;;5033123;28;20025;-72
2023/08/26 05:30:11;;;;;;;26.33;16.88;;;26.70;99.90;;;;;;5012319;28;20044;-74
2023/08/26 05:32:46;;;;;;;24.27;16.52;;;26.50;99.90;;;;;;5004342;28;20037;-74
2023/08/26 05:35:12;;;;;;;25.50;16.05;;;26.60;99.90;;;;;;5012472;28;20423;-71
2023/08/26 05:37:43;;;;;;;27.92;17.90;;;26.60;99.90;;;;;;5015891;28;20025;-73
2023/08/26 05:40:10;;;;;;;21.63;16.38;;;26.70;99.90;;;;;;5032538;28;20029;-72
2023/08/26 05:42:35;;;;;;;24.13;16.15;;;26.80;99.90;;;;;;5015298;28;20032;-72
2023/08/26 05:45:01;;;;;;;22.50;17.90;;;26.70;99.90;;;;;;5033396;28;20057;-71
2023/08/26 05:47:27;;;;;;;24.90;17.90;;;26.70;99.90;;;;;;5033178;28;20080;-72
2023/08/26 05:49:53;;;;;;;25.40;18.85;;;26.70;99.90;;;;;;5033486;28;20041;-72
2023/08/26 05:52:19;;;;;;;25.45;17.42;;;26.90;99.90;;;;;;5031934;28;20036;-71
2023/08/26 05:54:45;;;;;;;25.58;17.65;;;26.90;99.90;;;;;;5030951;28;20037;-72
2023/08/26 05:57:12;;;;;;;24.25;17.83;;;27.10;99.90;;;;;;5015118;28;20021;-72
2023/08/26 05:59:38;;;;;;;21.83;16.48;;;27.20;99.90;;;;;;5012917;28;20026;-71
2023/08/26 06:02:05;;;;;;;23.60;16.00;;;27.40;99.90;;;;;;5011765;28;20026;-72
2023/08/26 06:04:31;;;;;;;24.20;16.23;;;27.60;99.90;;;;;;5015706;28;20028;-74
2023/08/26 06:06:59;;;;;;;24.42;16.65;;;27.60;99.90;;;;;;5012260;28;20362;-72
2023/08/26 06:09:26;;;;;;;23.20;15.40;;;27.60;99.90;;;;;;5014898;28;20167;-72
2023/08/26 06:11:51;;;;;;;22.83;15.27;;;27.40;99.90;;;;;;5014854;28;20059;-73
2023/08/26 06:14:17;;;;;;;19.58;13.90;;;27.60;99.90;;;;;;5032491;28;20504;-72
2023/08/26 06:16:43;;;;;;;27.63;14.95;;;27.80;99.90;;;;;;5031641;28;20041;-72
2023/08/26 06:19:09;;;;;;;21.05;13.68;;;27.70;99.90;;;;;;5014319;28;20119;-71
2023/08/26 06:21:36;;;;;;;24.95;14.18;;;;;;;;;;5011663;28;20120;-73
2023/08/26 06:24:03;;;;;;;22.75;13.48;;;27.60;99.90;;;;;;5001606;28;20029;-73
2023/08/26 06:26:29;;;;;;;22.52;14.60;;;28.00;99.90;;;;;;5025229;28;20047;-72
2023/08/26 06:28:55;;;;;;;20.08;14.65;;;28.10;99.90;;;;;;5007979;28;20512;-72
2023/08/26 06:31:21;;;;;;;22.88;14.60;;;28.30;99.90;;;;;;5003274;28;20120;-72
2023/08/26 06:33:48;;;;;;;20.50;13.00;;;28.30;99.90;;;;;;5004185;28;20025;-72
2023/08/26 06:36:14;;;;;;;19.27;12.15;;;28.50;99.90;;;;;;5011307;28;20112;-73
2023/08/26 06:38:39;;;;;;;24.05;13.40;;;28.70;99.90;;;;;;5014758;28;20057;-73
2023/08/26 06:41:05;;;;;;;19.95;14.10;;;28.80;99.90;;;;;;5013907;28;20496;-72
2023/08/26 06:43:31;;;;;;;22.48;13.52;;;28.80;99.60;;;;;;5014350;28;20034;-71
2023/08/26 06:45:58;;;;;;;20.50;13.60;;;28.60;98.90;;;;;;5032375;28;20049;-73
2023/08/26 06:48:27;;;;;;;21.42;13.15;;;28.80;99.90;;;;;;5014519;28;20044;-72
2023/08/26 06:50:53;;;;;;;18.05;12.23;;;;;;;;;;5031823;28;20030;-72
2023/08/26 06:53:21;;;;;;;23.45;13.65;;;29.00;99.10;;;;;;5032226;28;20477;-72
2023/08/26 06:55:52;;;;;;;24.40;14.05;;;29.10;98.40;;;;;;5008468;28;20044;-71
2023/08/26 06:58:19;;;;;;;23.70;14.57;;;28.90;97.40;;;;;;5031266;28;20083;-73
2023/08/26 07:00:45;;;;;;;25.95;13.25;;;29.00;97.60;;;;;;5031894;28;20033;-72
2023/08/26 07:03:11;;;;;;;22.67;13.10;;;;;;;;;;5031672;28;20036;-71
2023/08/26 07:05:38;;;;;;;18.65;12.70;;;29.60;99.90;;;;;;5030491;28;20036;-73
2023/08/26 07:08:04;;;;;;;18.65;12.40;;;29.50;97.20;;;;;;5031830;28;20065;-74
2023/08/26 07:10:30;;;;;;;23.92;13.05;;;29.40;95.90;;;;;;5032153;28;20084;-73
2023/08/26 07:12:56;;;;;;;19.35;12.23;;;29.40;95.60;;;;;;5031445;28;20037;-73
2023/08/26 07:15:22;;;;;;;21.98;14.95;;;29.10;94.90;;;;;;5031925;28;20040;-73
2023/08/26 07:17:48;;;;;;;19.52;13.00;;;;;;;;;;5004379;28;20022;-73
2023/08/26 07:20:14;;;;;;;20.75;12.27;;;;;;;;;;5031713;28;20385;-72
2023/08/26 07:22:41;;;;;;;25.30;13.10;;;;;;;;;;5030256;28;20366;-71
2023/08/26 07:25:08;;;;;;;20.23;12.15;;;;;;;;;;5031373;28;20052;-73
2023/08/26 07:27:35;;;;;;;20.98;12.60;;;;;;;;;;5031065;28;20100;-70
2023/08/26 07:30:01;;;;;;;24.10;13.88;;;;;;;;;;5031676;28;20033;-71
2023/08/26 07:32:27;;;;;;;18.38;12.57;;;;;;;;;;5030046;28;20017;-72
2023/08/26 07:34:53;;;;;;;19.42;11.85;;;;;;;;;;5031404;28;20025;-72
2023/08/26 07:37:21;;;;;;;19.10;12.48;;;30.40;99.90;;;;;;5031143;28;20022;-72
2023/08/26 07:39:49;;;;;;;23.75;13.75;;;;;;;;;;5031313;28;20029;-71
2023/08/26 07:42:15;;;;;;;19.70;13.25;;;30.40;99.60;;;;;;5029446;28;20156;-71
2023/08/26 07:44:41;;;;;;;19.95;13.05;;;30.20;99.90;;;;;;5028914;28;20152;-74
2023/08/26 07:47:07;;;;;;;20.80;13.02;;;30.00;99.90;;;;;;5030048;28;20045;-73
2023/08/26 07:49:33;;;;;;;20.83;13.63;;;30.00;99.90;;;;;;5030549;28;20033;-70
2023/08/26 07:51:59;;;;;;;20.55;13.48;;;30.10;99.60;;;;;;5010335;28;20420;-72
2023/08/26 07:54:25;;;;;;;18.40;12.50;;;;;;;;;;5029937;28;20542;-71
2023/08/26 07:56:51;;;;;;;24.17;13.40;;;;;;;;;;5027720;28;20044;-71
2023/08/26 07:59:17;;;;;;;20.13;13.25;;;30.60;95.30;;;;;;5030994;28;20370;-71
2023/08/26 08:01:43;;;;;;;18.75;12.32;;;;;;;;;;5030786;28;20079;-72
2023/08/26 08:04:09;;;;;;;16.10;11.25;;;31.00;99.80;;;;;;5032452;28;20030;-72
2023/08/26 08:06:35;;;;;;;19.80;12.25;;;31.20;92.20;;;;;;5035064;28;20492;-72
2023/08/26 08:09:01;;;;;;;18.83;11.60;;;31.50;92.10;;;;;;5034425;28;20504;-72
2023/08/26 08:11:27;;;;;;;18.85;11.18;;;31.20;91.30;;;;;;5035285;28;20033;-73
2023/08/26 08:13:52;;;;;;;17.13;11.43;;;30.90;90.30;;;;;;5033125;28;20576;-71
2023/08/26 08:16:18;;;;;;;14.15;9.70;;;31.20;91.40;;;;;;5035418;28;20108;-71
2023/08/26 08:18:44;;;;;;;16.77;10.10;;;31.50;91.20;;;;;;5035064;28;20029;-71
2023/08/26 08:21:10;;;;;;;15.18;9.80;;;31.90;91.10;;;;;;5035274;28;20022;-72
2023/08/26 08:23:37;;;;;;;14.52;10.18;;;32.10;90.10;;;;;;5034621;28;20078;-72
2023/08/26 08:26:03;;;;;;;14.88;10.48;;;32.10;90.20;;;;;;5033512;28;20018;-71
2023/08/26 08:28:29;;;;;;;14.85;10.20;;;32.50;89.90;;;;;;5031009;28;20038;-72
2023/08/26 08:30:54;;;;;;;16.85;10.10;;;31.90;87.70;;;;;;5034926;28;20433;-73
2023/08/26 08:33:20;;;;;;;17.08;10.23;;;31.80;89.30;;;;;;5034286;28;20026;-72
2023/08/26 08:35:46;;;;;;;19.67;10.20;;;31.80;88.10;;;;;;5034582;28;20022;-71
2023/08/26 08:38:12;;;;;;;14.75;9.38;;;32.40;88.90;;;;;;5033479;28;20026;-73
2023/08/26 08:40:38;;;;;;;15.27;9.05;;;32.30;87.70;;;;;;5034365;28;20037;-71
2023/08/26 08:43:06;;;;;;;21.15;9.43;;;32.40;84.00;;;;;;5034079;28;20033;-72
2023/08/26 08:45:34;;;;;;;12.65;7.75;;;32.30;83.50;;;;;;5034016;28;20081;-72
2023/08/26 08:48:00;;;;;;;12.55;7.82;;;32.40;82.50;;;;;;5032828;28;20039;-72
2023/08/26 08:50:26;;;;;;;13.52;8.38;;;;;;;;;;5033885;28;20025;-72
2023/08/26 08:52:55;;;;;;;12.95;8.60;;;;;;;;;;5034066;28;20067;-72
2023/08/26 08:55:22;;;;;;;12.82;8.25;;;33.40;81.20;;;;;;5034249;28;20136;-71
2023/08/26 08:57:49;;;;;;;14.98;9.15;;;33.40;81.80;;;;;;5040706;28;20505;-72
2023/08/26 09:00:18;;;;;;;11.13;7.88;;;;;;;;;;5032398;28;20087;-72
2023/08/26 09:02:46;;;;;;;15.10;8.52;;;36.30;78.80;;;;;;5034412;28;20033;-72
2023/08/26 09:05:12;;;;;;;10.68;8.05;;;33.90;78.10;;;;;;5034176;28;20025;-74
2023/08/26 09:07:44;;;;;;;11.10;7.25;;;;;;;;;;5034127;28;20033;-74
2023/08/26 09:10:11;;;;;;;15.50;9.20;;;;;;;;;;5032098;28;20037;-73
2023/08/26 09:12:38;;;;;;;12.88;7.40;;;;;;;;;;5033499;28;20104;-75
2023/08/26 09:15:05;;;;;;;12.35;9.02;;;;;;;;;;5034046;28;20045;-72
2023/08/26 09:17:31;;;;;;;12.30;8.07;;;;;;;;;;5033621;28;20108;-72
2023/08/26 09:19:58;;;;;;;16.48;10.20;;;;;;;;;;5031749;28;20029;-71
2023/08/26 09:22:31;;;;;;;13.82;8.55;;;;;;;;;;5034037;28;20034;-72
2023/08/26 09:25:01;;;;;;;24.45;10.63;;;;;;;;;;5033609;28;20083;-71
2023/08/26 09:27:28;;;;;;;12.63;8.75;;;;;;;;;;5015632;28;20025;-72
2023/08/26 09:29:54;;;;;;;12.93;8.32;;;;;;;;;;5032151;28;20046;-72
2023/08/26 09:32:40;;;;;;;18.42;9.88;;;34.20;96.70;;;;;;5040886;28;20052;-72
2023/08/26 09:35:17;;;;;;;13.38;7.75;;;34.30;77.90;;;;;;5039898;28;20104;-73
2023/08/26 09:37:45;;;;;;;13.38;7.72;;;33.80;75.50;;;;;;5033695;28;20025;-73
2023/08/26 09:40:16;;;;;;;11.98;7.72;;;33.70;74.80;;;;;;5033521;28;20469;-70
2023/08/26 09:42:42;;;;;;;12.55;8.93;;;33.70;74.50;;;;;;5025051;28;20076;-72
2023/08/26 09:45:10;;;;;;;14.25;8.80;;;33.30;75.80;;;;;;5031338;28;20404;-73
2023/08/26 09:47:37;;;;;;;13.52;7.57;;;33.80;76.20;;;;;;5032548;28;20048;-72
2023/08/26 09:50:03;;;;;;;13.63;7.95;;;33.70;74.70;;;;;;5040925;28;20046;-71
2023/08/26 09:52:29;;;;;;;15.55;8.77;;;33.80;75.50;;;;;;5033236;28;20029;-72
2023/08/26 09:54:56;;;;;;;12.85;8.35;;;34.10;75.90;;;;;;5032545;28;20392;-71
2023/08/26 09:57:22;;;;;;;13.43;8.25;;;33.30;74.30;;;;;;5027686;28;20040;-74
2023/08/26 09:59:49;;;;;;;12.57;8.60;;;33.50;74.40;;;;;;5030486;28;20907;-71
2023/08/26 10:02:21;;;;;;;10.23;6.65;;;33.70;74.80;;;;;;5029761;28;20113;-71
2023/08/26 10:04:54;;;;;;;13.10;8.82;;;33.60;74.20;;;;;;5032572;28;20075;-74
2023/08/26 10:07:22;;;;;;;12.57;7.97;;;33.30;74.90;;;;;;5029545;28;20034;-72
2023/08/26 10:10:02;;;;;;;12.40;9.15;;;33.80;74.60;;;;;;5030859;28;20388;-71
2023/08/26 10:12:36;;;;;;;14.02;8.20;;;33.60;73.60;;;;;;5030914;28;20485;-73
2023/08/26 10:15:03;;;;;;;16.52;9.65;;;33.50;73.10;;;;;;5031976;28;20033;-73
2023/08/26 10:17:31;;;;;;;13.30;8.23;;;33.90;71.70;;;;;;5031171;28;20017;-74
2023/08/26 10:20:00;;;;;;;12.45;8.18;;;34.20;73.00;;;;;;5029305;28;20161;-72
2023/08/26 10:22:26;;;;;;;12.70;8.27;;;34.20;72.90;;;;;;5031494;28;20238;-73
2023/08/26 10:24:53;;;;;;;11.88;8.00;;;34.10;73.10;;;;;;5031979;28;20104;-74
2023/08/26 10:27:19;;;;;;;13.10;8.00;;;34.10;71.20;;;;;;5032450;28;20493;-74
2023/08/26 10:29:46;;;;;;;13.80;8.82;;;34.30;72.30;;;;;;5032231;28;20116;-74
2023/08/26 10:32:19;;;;;;;13.60;8.38;;;34.40;73.20;;;;;;5032823;28;20499;-75
2023/08/26 10:34:55;;;;;;;15.38;8.55;;;;;;;;;;5032476;28;20021;-71
2023/08/26 10:37:25;;;;;;;13.70;8.93;;;;;;;;;;5015335;28;20244;-72
2023/08/26 10:39:52;;;;;;;14.77;8.67;;;34.40;72.30;;;;;;5032546;28;20029;-73
2023/08/26 10:42:19;;;;;;;16.15;8.50;;;34.50;72.50;;;;;;5031364;28;20455;-72
2023/08/26 10:44:53;;;;;;;14.38;8.45;;;34.50;71.80;;;;;;5013293;28;20046;-71
2023/08/26 10:47:44;;;;;;;15.00;8.77;;;34.20;70.70;;;;;;5031470;28;20099;-71
2023/08/26 10:50:20;;;;;;;;;;;34.50;72.70;;;;;;5027237;28;20485;-73
2023/08/26 10:52:58;;;;;;;13.27;8.50;;;;;;;;;;5028356;28;19909;-70
2023/08/26 10:55:26;;;;;;;11.27;8.20;;;34.70;71.20;;;;;;5031733;28;20028;-70
2023/08/26 10:58:10;;;;;;;12.55;8.55;;;34.60;72.20;;;;;;5028832;28;20025;-72
2023/08/26 11:00:38;;;;;;;12.70;8.65;;;34.30;72.50;;;;;;5028428;28;20083;-75
2023/08/26 11:03:08;;;;;;;14.98;9.10;;;34.40;72.20;;;;;;5030400;28;20014;-72
2023/08/26 11:05:39;;;;;;;12.45;8.65;;;34.00;71.80;;;;;;5028148;28;20033;-74
2023/08/26 11:08:05;;;;;;;13.93;8.93;;;34.40;72.10;;;;;;5031045;28;20099;-73
2023/08/26 11:10:39;;;;;;;13.77;8.60;;;34.50;70.20;;;;;;5031238;28;20061;-74
2023/08/26 11:13:05;;;;;;;13.65;8.93;;;34.60;70.60;;;;;;5030941;28;20112;-73
2023/08/26 11:15:38;;;;;;;11.10;7.90;;;34.60;65.50;;;;;;5030406;28;20030;-74
2023/08/26 11:18:05;;;;;;;12.85;8.50;;;34.50;62.10;;;;;;5030736;28;20025;-73
2023/08/26 11:20:32;;;;;;;11.32;8.43;;;34.70;65.10;;;;;;5030830;28;20030;-73
2023/08/26 11:22:58;;;;;;;11.75;8.15;;;;;;;;;;5030396;28;20084;-72
2023/08/26 11:25:24;;;;;;;8.90;7.25;;;34.70;63.90;;;;;;5030685;28;20022;-76
2023/08/26 11:27:51;;;;;;;13.57;7.85;;;34.80;61.40;;;;;;5031685;28;20048;-73
2023/08/26 11:30:17;;;;;;;11.73;7.80;;;;;;;;;;5031419;28;20045;-74
2023/08/26 11:32:48;;;;;;;12.75;7.38;;;;;;;;;;5031572;28;20388;-72
2023/08/26 11:35:14;;;;;;;;;;;;;;;;;;5030899;28;20101;-73
2023/08/26 11:37:44;;;;;;;11.90;6.30;;;;;;;;;;5031224;28;20021;-74
2023/08/26 11:40:11;;;;;;;14.32;8.18;;;;;;;;;;5022303;28;20030;-72
2023/08/26 11:42:37;;;;;;;8.82;5.90;;;35.40;58.40;;;;;;5034580;28;20484;-72
2023/08/26 11:45:11;;;;;;;13.70;7.18;;;35.40;57.80;;;;;;5034401;28;20056;-71
2023/08/26 11:47:37;;;;;;;9.45;6.80;;;35.10;58.50;;;;;;5031797;28;20029;-73
2023/08/26 11:50:03;;;;;;;9.65;6.55;;;35.10;59.60;;;;;;5020762;28;20052;-72
2023/08/26 11:52:33;;;;;;;8.15;5.75;;;35.40;58.00;;;;;;5027613;28;20392;-73
2023/08/26 11:55:00;;;;;;;7.72;5.63;;;35.50;56.00;;;;;;5028549;28;20032;-74
2023/08/26 11:57:26;;;;;;;6.00;4.63;;;35.40;55.00;;;;;;5032960;28;20555;-72
2023/08/26 11:59:52;;;;;;;8.35;5.65;;;35.50;55.20;;;;;;5032458;28;20021;-74
2023/08/26 12:02:24;;;;;;;7.60;5.38;;;35.60;70.00;;;;;;5034786;28;20031;-73
2023/08/26 12:04:59;;;;;;;11.98;6.22;;;35.50;82.30;;;;;;5035606;28;20044;-74
2023/08/26 12:07:26;;;;;;;11.27;6.72;;;35.70;82.10;;;;;;5035198;28;20034;-74
2023/08/26 12:09:55;;;;;;;12.38;6.68;;;;;;;;;;5035465;28;20037;-73
2023/08/26 12:12:22;;;;;;;15.48;7.97;;;;;;;;;;5035230;28;20033;-74
2023/08/26 12:14:48;;;;;;;18.10;7.20;;;35.70;57.30;;;;;;5034963;28;20017;-73
2023/08/26 12:17:15;;;;;;;10.15;6.65;;;35.60;59.60;;;;;;5035262;28;20429;-73
2023/08/26 12:19:41;;;;;;;11.02;6.95;;;35.50;60.00;;;;;;5034760;28;20389;-73
2023/08/26 12:22:08;;;;;;;11.32;6.68;;;35.70;60.60;;;;;;5034713;28;20025;-74
2023/08/26 12:24:40;;;;;;;15.10;8.32;;;35.60;59.40;;;;;;5034125;28;20513;-74
2023/08/26 12:27:13;;;;;;;11.07;7.30;;;35.60;59.80;;;;;;5034421;28;20036;-76
2023/08/26 12:29:39;;;;;;;12.15;6.70;;;35.60;59.30;;;;;;5015693;28;20492;-74
2023/08/26 12:32:05;;;;;;;8.88;6.72;;;35.50;59.70;;;;;;5036245;28;20025;-73
2023/08/26 12:34:32;;;;;;;18.85;8.18;;;35.60;60.40;;;;;;5034600;28;20067;-74
2023/08/26 12:36:58;;;;;;;12.52;6.95;;;35.40;60.50;;;;;;5033690;28;20029;-75
2023/08/26 12:39:24;;;;;;;12.27;7.15;;;35.30;58.60;;;;;;5032844;28;20030;-74
2023/08/26 12:41:54;;;;;;;9.52;7.13;;;35.40;60.20;;;;;;5028858;28;20037;-74
2023/08/26 12:44:23;;;;;;;13.02;6.70;;;35.40;60.70;;;;;;5032956;28;20053;-74